createdAt,value
2022-09-14T00:03:43.384Z,1.50
2022-09-14T00:08:51.517Z,1.75
2022-09-14T00:13:56.171Z,1.73
2022-09-14T00:19:05.764Z,1.60
2022-09-14T00:24:12.458Z,1.95
2022-09-14T00:29:17.159Z,1.63
2022-09-14T00:34:21.494Z,2.30
2022-09-14T00:39:28.277Z,1.98
2022-09-14T00:44:59.629Z,2.10
2022-09-14T00:50:05.214Z,2.30
2022-09-14T00:55:12.628Z,1.17
2022-09-14T01:00:20.075Z,2.22
2022-09-14T01:05:32.016Z,2.35
2022-09-14T01:10:47.802Z,2.08
2022-09-14T01:16:00.206Z,2.10
2022-09-14T01:21:07.412Z,2.05
2022-09-14T01:26:52.874Z,1.98
2022-09-14T01:32:01.728Z,1.90
2022-09-14T01:37:13.040Z,2.10
2022-09-14T01:42:18.654Z,2.40
2022-09-14T01:47:27.533Z,1.57
2022-09-14T01:52:35.875Z,2.30
2022-09-14T01:57:43.562Z,2.58
2022-09-14T02:02:54.165Z,2.45
2022-09-14T02:07:58.117Z,2.30
2022-09-14T02:13:02.089Z,2.40
2022-09-14T02:18:07.539Z,2.13
2022-09-14T02:23:11.345Z,2.37
2022-09-14T02:28:15.572Z,2.63
2022-09-14T02:33:24.890Z,2.88
2022-09-14T02:38:34.059Z,3.55
2022-09-14T02:43:42.918Z,3.85
2022-09-14T02:48:53.777Z,3.00
2022-09-14T02:54:01.350Z,3.38
2022-09-14T02:59:05.614Z,3.00
2022-09-14T03:04:10.771Z,4.05
2022-09-14T03:09:14.581Z,3.65
2022-09-14T03:14:18.404Z,4.05
2022-09-14T03:19:23.630Z,4.53
2022-09-14T03:24:27.426Z,4.40
2022-09-14T03:29:31.210Z,4.10
2022-09-14T03:34:36.387Z,3.38
2022-09-14T03:39:40.176Z,4.18
2022-09-14T03:44:43.993Z,4.20
2022-09-14T03:49:49.199Z,4.80
2022-09-14T03:54:53.019Z,3.75
2022-09-14T03:59:56.841Z,4.07
2022-09-14T04:05:02.140Z,4.03
2022-09-14T04:10:07.197Z,4.40
2022-09-14T04:15:11.524Z,3.97
2022-09-14T04:20:18.369Z,5.22
2022-09-14T04:25:23.168Z,4.43
2022-09-14T04:30:26.954Z,4.32
2022-09-14T04:35:32.136Z,3.97
2022-09-14T04:40:36.938Z,5.45
2022-09-14T04:45:40.999Z,6.10
2022-09-14T04:50:46.219Z,5.10
2022-09-14T04:55:49.991Z,4.15
2022-09-14T05:00:53.799Z,5.03
2022-09-14T05:06:02.962Z,5.25
2022-09-14T05:11:08.004Z,5.43
2022-09-14T05:16:19.907Z,7.43
2022-09-14T05:21:26.017Z,7.18
2022-09-14T05:26:31.024Z,4.85
2022-09-14T05:31:35.364Z,6.65
2022-09-14T05:36:41.419Z,6.50
2022-09-14T05:41:45.235Z,7.95
2022-09-14T05:46:49.129Z,8.60
2022-09-14T05:51:54.338Z,6.60
2022-09-14T05:56:58.132Z,7.30
2022-09-14T06:02:02.026Z,5.97
2022-09-14T06:07:18.428Z,5.70
2022-09-14T06:12:22.832Z,5.45
2022-09-14T06:17:26.921Z,5.80
2022-09-14T06:22:32.449Z,8.13
2022-09-14T06:27:36.244Z,6.40
2022-09-14T06:32:40.020Z,6.07
2022-09-14T06:37:45.197Z,6.22
2022-09-14T06:42:49.731Z,6.20
2022-09-14T06:47:53.502Z,6.15
2022-09-14T06:52:58.778Z,6.20
2022-09-14T06:58:03.126Z,8.43
2022-09-14T07:03:06.977Z,12.38
2022-09-14T07:08:12.580Z,7.45
2022-09-14T07:13:16.391Z,7.85
2022-09-14T07:18:20.241Z,7.72
2022-09-14T07:23:25.514Z,8.00
2022-09-14T07:28:29.604Z,18.58
2022-09-14T07:33:33.914Z,6.68
2022-09-14T07:38:52.026Z,6.25
2022-09-14T07:44:00.243Z,6.50
2022-09-14T07:49:05.005Z,6.85
2022-09-14T07:54:13.006Z,7.22
2022-09-14T07:59:35.198Z,7.07
2022-09-14T08:04:40.418Z,7.68
2022-09-14T08:09:45.496Z,10.70
2022-09-14T08:14:51.049Z,5.87
2022-09-14T08:19:55.786Z,5.70
2022-09-14T08:25:00.938Z,4.00
2022-09-14T08:30:05.494Z,4.35
2022-09-14T08:35:10.043Z,4.53
2022-09-14T08:40:17.540Z,3.97
2022-09-14T08:45:22.564Z,3.92
2022-09-14T08:50:26.802Z,5.00
2022-09-14T08:55:35.497Z,10.00
2022-09-14T09:00:42.627Z,4.63
2022-09-14T09:05:50.622Z,4.30
2022-09-14T09:10:56.432Z,4.38
2022-09-14T09:16:02.134Z,5.05
2022-09-14T09:21:09.764Z,4.80
2022-09-14T09:26:18.340Z,4.32
2022-09-14T09:31:26.801Z,3.75
2022-09-14T09:36:57.080Z,4.00
2022-09-14T09:42:04.955Z,3.73
2022-09-14T09:47:09.783Z,3.92
2022-09-14T09:52:15.199Z,9.95
2022-09-14T09:57:24.496Z,3.28
2022-09-14T10:02:29.801Z,3.58
2022-09-14T10:07:36.051Z,3.13
2022-09-14T10:12:48.039Z,2.90
2022-09-14T10:17:56.535Z,2.55
2022-09-14T10:23:16.810Z,2.58
2022-09-14T10:28:24.909Z,4.60
2022-09-14T10:33:28.843Z,3.10
2022-09-14T10:38:35.135Z,6.40
2022-09-14T10:44:05.468Z,4.47
2022-09-14T10:49:24.947Z,2.10
2022-09-14T10:54:44.472Z,2.30
2022-09-14T10:59:54.746Z,2.30
2022-09-14T11:05:09.735Z,2.10
2022-09-14T11:10:20.589Z,2.85
2022-09-14T11:15:29.509Z,2.65
2022-09-14T11:20:42.907Z,3.90
2022-09-14T11:25:49.647Z,3.03
2022-09-14T11:30:58.949Z,2.03
2022-09-14T11:36:05.502Z,1.98
2022-09-14T11:41:18.026Z,1.90
2022-09-14T11:46:27.293Z,2.00
2022-09-14T11:51:34.916Z,1.80
2022-09-14T11:56:38.707Z,2.75
2022-09-14T12:01:43.897Z,1.85
2022-09-14T12:06:57.570Z,2.08
2022-09-14T12:12:03.390Z,2.50
2022-09-14T12:17:38.398Z,1.90
2022-09-14T12:22:41.719Z,1.80
2022-09-14T12:27:46.833Z,2.10
2022-09-14T12:32:52.579Z,2.28
2022-09-14T12:37:56.383Z,1.70
2022-09-14T12:48:13.019Z,1.88
2022-09-14T12:53:30.641Z,2.28
2022-09-14T12:59:00.051Z,2.15
2022-09-14T13:04:06.167Z,2.00
2022-09-14T13:09:17.528Z,1.95
2022-09-14T13:14:21.747Z,2.63
2022-09-14T13:19:30.949Z,2.10
2022-09-14T13:24:38.872Z,2.08
2022-09-14T13:29:42.704Z,2.42
2022-09-14T13:39:53.229Z,4.00
2022-09-14T13:44:57.346Z,2.15
2022-09-14T13:50:03.228Z,1.92
2022-09-14T13:55:18.927Z,1.80
2022-09-14T14:00:23.771Z,1.83
2022-09-14T14:05:30.375Z,1.90
2022-09-14T14:10:36.123Z,1.90
2022-09-14T14:15:41.653Z,2.00
2022-09-14T14:20:47.512Z,1.52
2022-09-14T14:25:55.799Z,2.65
2022-09-14T14:31:07.812Z,2.20
2022-09-14T14:36:17.947Z,2.03
2022-09-14T14:41:22.569Z,2.63
2022-09-14T14:46:26.721Z,2.13
2022-09-14T14:51:31.960Z,1.73
2022-09-14T14:56:36.107Z,3.80
2022-09-14T15:01:39.963Z,3.05
2022-09-14T15:06:46.126Z,2.65
2022-09-14T15:11:50.498Z,2.00
2022-09-14T15:16:58.147Z,3.00
2022-09-14T15:22:03.440Z,2.50
2022-09-14T15:27:07.408Z,2.53
2022-09-14T15:32:11.217Z,3.35
2022-09-14T15:37:16.459Z,3.53
2022-09-14T15:42:20.610Z,3.33
2022-09-14T15:47:24.455Z,3.08
2022-09-14T15:52:29.605Z,2.53
2022-09-14T15:57:33.562Z,2.33
2022-09-14T16:02:37.438Z,2.58
2022-09-14T16:07:42.674Z,2.97
2022-09-14T16:17:52.244Z,2.40
2022-09-14T16:22:57.495Z,2.75
2022-09-14T16:28:01.261Z,2.88
2022-09-14T16:33:05.122Z,3.55
2022-09-14T16:38:10.391Z,3.65
2022-09-14T16:43:14.152Z,3.30
2022-09-14T16:48:17.904Z,3.67
2022-09-14T16:53:23.079Z,7.45
2022-09-14T16:58:26.906Z,4.57
2022-09-14T17:03:40.742Z,6.05
2022-09-14T17:08:46.404Z,7.38
2022-09-14T17:18:59.095Z,5.63
2022-09-14T17:24:05.405Z,5.82
2022-09-14T17:29:09.505Z,6.53
2022-09-14T17:34:15.960Z,6.22
2022-09-14T17:39:21.143Z,4.95
2022-09-14T17:44:25.971Z,5.88
2022-09-14T17:49:29.781Z,5.37
2022-09-14T17:54:34.960Z,6.15
2022-09-14T17:59:38.754Z,5.90
2022-09-14T18:04:46.607Z,6.70
2022-09-14T18:09:54.879Z,6.10
2022-09-14T18:14:58.644Z,6.30
2022-09-14T18:20:02.750Z,7.03
2022-09-14T18:25:09.689Z,7.57
2022-09-14T18:30:14.428Z,7.45
2022-09-14T18:35:18.401Z,6.95
2022-09-14T18:40:24.363Z,8.38
2022-09-14T18:45:28.751Z,8.38
2022-09-14T18:50:32.585Z,8.93
2022-09-14T18:55:37.847Z,7.50
2022-09-14T19:00:45.101Z,10.43
2022-09-14T19:05:48.923Z,9.90
2022-09-14T19:10:54.128Z,8.20
2022-09-14T19:15:57.954Z,8.02
2022-09-14T19:21:06.993Z,8.10
2022-09-14T19:26:14.757Z,8.25
2022-09-14T19:31:21.109Z,6.80
2022-09-14T19:36:25.356Z,7.57
2022-09-14T19:41:31.545Z,8.20
2022-09-14T19:46:36.441Z,7.85
2022-09-14T19:51:40.503Z,6.33
2022-09-14T19:56:46.226Z,6.18
2022-09-14T20:01:51.000Z,8.90
2022-09-14T20:06:56.490Z,9.88
2022-09-14T20:12:01.932Z,5.95
2022-09-14T20:17:06.518Z,6.15
2022-09-14T20:22:14.839Z,5.82
2022-09-14T20:27:21.851Z,7.07
2022-09-14T20:32:25.710Z,6.70
2022-09-14T20:37:30.065Z,5.60
2022-09-14T20:42:35.303Z,5.82
2022-09-14T20:47:39.655Z,7.97
2022-09-14T20:52:43.432Z,6.32
2022-09-14T20:57:48.621Z,6.72
2022-09-14T21:02:52.578Z,6.60
2022-09-14T21:07:57.095Z,6.00
2022-09-14T21:13:02.262Z,6.03
2022-09-14T21:18:06.130Z,6.27
2022-09-14T21:23:09.945Z,5.38
2022-09-14T21:28:15.190Z,5.57
2022-09-14T21:33:18.974Z,5.53
2022-09-14T21:38:22.903Z,5.47
2022-09-14T21:43:28.639Z,4.70
2022-09-14T21:48:32.499Z,5.30
2022-09-14T21:53:36.680Z,4.30
2022-09-14T21:58:42.239Z,5.07
2022-09-14T22:03:46.927Z,4.95
2022-09-14T22:08:51.956Z,4.80
2022-09-14T22:13:58.761Z,4.65
2022-09-14T22:19:05.263Z,4.80
2022-09-14T22:24:12.782Z,4.60
2022-09-14T22:29:18.837Z,4.90
2022-09-14T22:39:26.248Z,4.60
2022-09-14T22:44:31.408Z,5.00
2022-09-14T22:49:35.201Z,5.20
2022-09-14T22:54:39.017Z,5.90
2022-09-14T22:59:44.180Z,5.53
2022-09-14T23:04:50.369Z,4.47
2022-09-14T23:09:54.224Z,5.57
2022-09-14T23:14:59.387Z,5.53
2022-09-14T23:20:03.722Z,5.73
2022-09-14T23:25:08.562Z,5.10
2022-09-14T23:30:14.998Z,5.20
2022-09-14T23:35:19.048Z,4.90
2022-09-14T23:40:23.227Z,4.70
2022-09-14T23:45:28.488Z,4.78
2022-09-14T23:50:32.296Z,4.67
2022-09-14T23:55:36.158Z,4.45
